Time;durP1;ratioP1;P1;durP2;ratioP2;P2;SDS_P1;SDS_P2;PMS_P1;PMS_P2;Temp;Humidity;BMP_temperature;BMP_pressure;BME280_temperature;BME280_humidity;BME280_pressure;Samples;Min_cycle;Max_cycle;Signal;HPM_P1;HPM_P2
2022/04/09 00:01:57;;;;;;;;;;;;;;;3.68;89.43;100440.47;5041302;28;19955;-77
2022/04/09 00:04:22;;;;;;;;;;;;;;;3.59;89.86;100441.56;5041471;28;19932;-77
2022/04/09 00:06:48;;;;;;;;;;;;;;;3.53;89.81;100442.56;5043413;28;19928;-79
2022/04/09 00:09:13;;;;;;;;;;;;;;;3.46;90.14;100441.00;5044724;28;19974;-77
2022/04/09 00:11:39;;;;;;;;;;;;;;;3.43;90.54;100450.63;5043811;28;19935;-78
2022/04/09 00:14:05;;;;;;;;;;;;;;;3.44;90.76;100454.94;5041623;28;19924;-78
2022/04/09 00:16:30;;;;;;;;;;;;;;;3.36;91.21;100457.69;5043395;28;19931;-77
2022/04/09 00:18:56;;;;;;;;;;;;;;;3.33;91.73;100462.94;5042847;28;19954;-77
2022/04/09 00:21:21;;;;;;;;;;;;;;;3.29;91.83;100471.72;5043205;28;19931;-77
2022/04/09 00:23:46;;;;;;;;;;;;;;;3.28;92.33;100477.78;5040998;28;19936;-78
2022/04/09 00:26:11;;;;;;;;;;;;;;;3.27;92.91;100474.31;5039688;28;20377;-77
2022/04/09 00:28:37;;;;;;;;;;;;;;;3.24;93.03;100477.00;5041304;28;19966;-78
2022/04/09 00:31:02;;;;;;;;;;;;;;;3.20;93.57;100481.41;5039413;28;20340;-77
2022/04/09 00:33:27;;;;;;;;;;;;;;;3.17;93.66;100488.41;5040275;28;19932;-77
2022/04/09 00:35:53;;;;;;;;;;;;;;;3.21;94.52;100490.88;5042154;28;19947;-77
2022/04/09 00:38:18;;;;;;;;;;;;;;;3.20;95.02;100488.34;5044655;28;19967;-78
2022/04/09 00:40:43;;;;;;;;;;;;;;;3.19;95.19;100490.09;5059872;28;19924;-77
2022/04/09 00:43:08;;;;;;;;;;;;;;;3.30;95.80;100510.63;5045155;28;19963;-77
2022/04/09 00:45:34;;;;;;;;;;;;;;;3.50;96.70;100506.72;5044019;28;19933;-76
2022/04/09 00:47:59;;;;;;;;;;;;;;;3.72;95.89;100494.09;5043770;28;19925;-76
2022/04/09 00:50:24;;;;;;;;;;;;;;;3.79;93.25;100500.84;5045504;28;19940;-76
2022/04/09 00:52:52;;;;;;;;;;;;;;;3.86;92.35;100498.94;5042966;28;19925;-76
2022/04/09 00:55:19;;;;;;;;;;;;;;;3.90;90.85;100505.78;5041609;28;19920;-76
2022/04/09 00:57:46;;;;;;;;;;;;;;;4.01;89.65;100505.50;5043369;28;19920;-76
2022/04/09 01:00:12;;;;;;;;;;;;;;;3.97;87.89;100490.91;5042570;28;20063;-75
2022/04/09 01:02:41;;;;;;;;;;;;;;;3.98;87.58;100495.19;5043592;28;20007;-75
2022/04/09 01:05:06;;;;;;;;;;;;;;;3.84;87.56;100495.53;5042999;28;19952;-77
2022/04/09 01:07:32;;;;;;;;;;;;;;;3.69;87.82;100499.34;5045969;28;19932;-75
2022/04/09 01:09:57;;;;;;;;;;;;;;;3.61;87.98;100509.06;5043094;28;19921;-74
2022/04/09 01:12:23;;;;;;;;;;;;;;;3.52;88.53;100508.41;5042264;28;20319;-75
2022/04/09 01:14:48;;;;;;;;;;;;;;;3.42;88.17;100503.44;5043119;28;20426;-76
2022/04/09 01:17:14;;;;;;;;;;;;;;;3.37;88.60;100517.38;5041000;28;19929;-74
2022/04/09 01:19:39;;;;;;;;;;;;;;;3.29;88.81;100518.44;5043742;28;19925;-75
2022/04/09 01:22:04;;;;;;;;;;;;;;;3.23;89.44;100522.88;5023799;28;19943;-80
2022/04/09 01:24:30;;;;;;;;;;;;;;;3.26;89.49;100524.53;5025589;28;19925;-77
2022/04/09 01:26:55;;;;;;;;;;;;;;;3.21;90.04;100527.25;5021200;28;19972;-85
2022/04/09 01:29:20;;;;;;;;;;;;;;;3.32;90.76;100544.31;5022286;28;19987;-78
2022/04/09 01:31:46;;;;;;;;;;;;;;;3.29;90.97;100557.41;5029551;28;19936;-77
2022/04/09 01:34:13;;;;;;;;;;;;;;;3.35;91.46;100565.91;5036838;28;19936;-75
2022/04/09 01:36:38;;;;;;;;;;;;;;;3.43;90.96;100557.94;5043835;28;19956;-76
2022/04/09 01:39:04;;;;;;;;;;;;;;;3.59;88.61;100555.84;5045431;28;19946;-76
2022/04/09 01:41:29;;;;;;;;;;;;;;;3.70;88.92;100555.63;5047380;28;19929;-76
2022/04/09 01:43:54;;;;;;;;;;;;;;;3.89;87.76;100548.25;5047136;28;19936;-77
2022/04/09 01:46:20;;;;;;;;;;;;;;;3.93;88.36;100556.81;5045768;28;19987;-75
2022/04/09 01:48:45;;;;;;;;;;;;;;;3.89;88.94;100549.97;5046566;28;19963;-75
2022/04/09 01:51:10;;;;;;;;;;;;;;;3.84;89.92;100569.16;5044263;28;20429;-76
2022/04/09 01:53:38;;;;;;;;;;;;;;;3.82;90.35;100563.13;5045087;28;20004;-75
2022/04/09 01:56:04;;;;;;;;;;;;;;;3.74;90.53;100572.88;5043741;28;19928;-75
2022/04/09 01:58:30;;;;;;;;;;;;;;;3.77;90.61;100572.78;5047553;28;19928;-76
2022/04/09 02:00:58;;;;;;;;;;;;;;;3.82;90.17;100577.84;5048561;28;19967;-74
2022/04/09 02:03:24;;;;;;;;;;;;;;;3.90;89.38;100575.97;5062845;28;20617;-75
2022/04/09 02:05:50;;;;;;;;;;;;;;;3.87;89.34;100576.84;5048852;28;19925;-75
2022/04/09 02:08:15;;;;;;;;;;;;;;;3.89;89.22;100582.03;5048029;28;19917;-76
2022/04/09 02:10:40;;;;;;;;;;;;;;;3.90;88.72;100577.69;5048536;28;19927;-76
2022/04/09 02:13:13;;;;;;;;;;;;;;;3.98;88.13;100578.34;5047319;28;19920;-75
2022/04/09 02:15:39;;;;;;;;;;;;;;;3.94;88.38;100594.94;5048388;28;19955;-76
2022/04/09 02:18:04;;;;;;;;;;;;;;;4.02;87.60;100575.63;5046655;28;19967;-76
2022/04/09 02:20:30;;;;;;;;;;;;;;;4.07;86.01;100583.34;5046922;28;19917;-76
2022/04/09 02:22:56;;;;;;;;;;;;;;;4.05;85.23;100586.84;5048277;28;20451;-77
2022/04/09 02:25:21;;;;;;;;;;;;;;;3.97;85.90;100589.66;5048448;28;19921;-76
2022/04/09 02:27:46;;;;;;;;;;;;;;;4.03;83.89;100585.16;5049544;28;21318;-74
2022/04/09 02:30:12;;;;;;;;;;;;;;;4.14;82.30;100574.50;5047929;28;20055;-77
2022/04/09 02:32:42;;;;;;;;;;;;;;;4.15;82.53;100583.16;5049030;28;19924;-74
2022/04/09 02:35:07;;;;;;;;;;;;;;;4.13;82.07;100584.97;5044003;28;19957;-75
2022/04/09 02:37:32;;;;;;;;;;;;;;;4.13;82.71;100590.16;5050729;28;20421;-76
2022/04/09 02:39:58;;;;;;;;;;;;;;;4.16;83.09;100593.53;5043432;28;19995;-75
2022/04/09 02:42:23;;;;;;;;;;;;;;;4.17;83.79;100600.44;5047521;28;20337;-77
2022/04/09 02:44:48;;;;;;;;;;;;;;;4.09;84.58;100610.16;5047365;28;19935;-77
2022/04/09 02:47:13;;;;;;;;;;;;;;;4.04;84.88;100612.00;5042996;28;19943;-76
2022/04/09 02:49:39;;;;;;;;;;;;;;;3.99;85.78;100621.66;5046573;28;19944;-75
2022/04/09 02:52:05;;;;;;;;;;;;;;;4.06;86.13;100641.44;5045415;28;19917;-76
2022/04/09 02:54:30;;;;;;;;;;;;;;;4.15;86.53;100654.22;5049297;28;19924;-75
2022/04/09 02:56:55;;;;;;;;;;;;;;;4.10;88.17;100647.41;5045325;28;20421;-78
2022/04/09 02:59:21;;;;;;;;;;;;;;;4.06;87.97;100646.63;5046386;28;19925;-76
2022/04/09 03:01:46;;;;;;;;;;;;;;;4.10;87.09;100660.41;5046379;28;19929;-76
2022/04/09 03:04:12;;;;;;;;;;;;;;;4.08;89.12;100668.22;5045192;28;20701;-75
2022/04/09 03:06:37;;;;;;;;;;;;;;;4.00;90.48;100665.81;5046813;28;19920;-77
2022/04/09 03:09:03;;;;;;;;;;;;;;;3.97;89.99;100671.09;5044700;28;20345;-75
2022/04/09 03:11:28;;;;;;;;;;;;;;;3.90;89.17;100666.06;5046585;28;20718;-76
2022/04/09 03:13:53;;;;;;;;;;;;;;;3.84;90.20;100690.44;5044734;28;20006;-76
2022/04/09 03:16:19;;;;;;;;;;;;;;;3.86;90.68;100712.88;5046298;28;19927;-77
2022/04/09 03:18:44;;;;;;;;;;;;;;;3.87;91.04;100714.59;5047778;28;19924;-76
2022/04/09 03:21:09;;;;;;;;;;;;;;;3.76;92.35;100705.34;5044907;28;19931;-75
2022/04/09 03:23:34;;;;;;;;;;;;;;;3.65;91.55;100693.41;5046438;28;20398;-76
2022/04/09 03:26:00;;;;;;;;;;;;;;;3.54;90.80;100704.00;5046185;28;19940;-76
2022/04/09 03:28:26;;;;;;;;;;;;;;;3.49;89.54;100698.06;5047159;28;19916;-77
2022/04/09 03:30:51;;;;;;;;;;;;;;;3.39;90.18;100701.72;5046496;28;19967;-76
2022/04/09 03:33:16;;;;;;;;;;;;;;;3.39;89.89;100694.78;5047328;28;19924;-76
2022/04/09 03:35:42;;;;;;;;;;;;;;;3.34;90.49;100708.75;5048057;28;20370;-76
2022/04/09 03:38:11;;;;;;;;;;;;;;;3.30;91.64;100722.69;5045581;28;20425;-74
2022/04/09 03:40:37;;;;;;;;;;;;;;;3.41;92.25;100731.13;5046849;28;20015;-77
2022/04/09 03:43:02;;;;;;;;;;;;;;;3.59;92.38;100732.50;5045728;28;20062;-77
2022/04/09 03:45:27;;;;;;;;;;;;;;;3.66;91.75;100738.44;5047085;28;19929;-75
2022/04/09 03:47:53;;;;;;;;;;;;;;;3.73;90.61;100724.44;5046911;28;19935;-77
2022/04/09 03:50:18;;;;;;;;;;;;;;;3.69;88.99;100708.03;5046086;28;19973;-75
2022/04/09 03:52:43;;;;;;;;;;;;;;;3.66;88.51;100713.31;5046959;28;19928;-75
2022/04/09 03:55:09;;;;;;;;;;;;;;;3.59;88.72;100709.13;5045316;28;20286;-77
2022/04/09 03:57:34;;;;;;;;;;;;;;;3.52;89.01;100718.81;5047572;28;20002;-75
2022/04/09 04:00:00;;;;;;;;;;;;;;;3.46;89.16;100718.91;5045702;28;19917;-76
2022/04/09 04:02:26;;;;;;;;;;;;;;;3.40;89.73;100724.22;5045427;28;19928;-75
2022/04/09 04:04:51;;;;;;;;;;;;;;;3.42;90.00;100731.97;5048557;28;19925;-76
2022/04/09 04:07:20;;;;;;;;;;;;;;;3.37;90.31;100740.69;5045030;28;19932;-75
2022/04/09 04:09:46;;;;;;;;;;;;;;;3.30;91.23;100741.69;5047767;28;19917;-77
2022/04/09 04:12:11;;;;;;;;;;;;;;;3.33;91.89;100743.38;5046124;28;19928;-77
2022/04/09 04:14:36;;;;;;;;;;;;;;;3.35;91.67;100747.69;5046887;28;19928;-78
2022/04/09 04:17:01;;;;;;;;;;;;;;;3.37;91.01;100752.84;5044318;28;19943;-76
2022/04/09 04:19:27;;;;;;;;;;;;;;;3.40;90.95;100755.38;5048238;28;19955;-74
2022/04/09 04:21:52;;;;;;;;;;;;;;;3.48;90.18;100757.81;5045177;28;19933;-75
2022/04/09 04:24:17;;;;;;;;;;;;;;;3.50;89.91;100754.31;5045428;28;19928;-75
2022/04/09 04:26:42;;;;;;;;;;;;;;;3.58;89.46;100758.50;5046314;28;20023;-76
2022/04/09 04:29:08;;;;;;;;;;;;;;;3.63;89.21;100762.72;5045604;28;19960;-78
2022/04/09 04:31:33;;;;;;;;;;;;;;;3.60;89.27;100761.94;5045440;28;19924;-77
2022/04/09 04:33:58;;;;;;;;;;;;;;;3.66;89.25;100761.81;5044401;28;20277;-77
2022/04/09 04:36:24;;;;;;;;;;;;;;;3.66;89.50;100767.00;5043630;28;19928;-77
2022/04/09 04:38:50;;;;;;;;;;;;;;;3.66;90.35;100780.00;5059244;28;19920;-76
2022/04/09 04:41:15;;;;;;;;;;;;;;;3.68;90.98;100778.22;5043223;28;20434;-75
2022/04/09 04:43:41;;;;;;;;;;;;;;;3.69;91.30;100779.94;5046154;28;19917;-77
2022/04/09 04:46:06;;;;;;;;;;;;;;;3.72;90.86;100785.09;5042706;28;19931;-75
2022/04/09 04:48:31;;;;;;;;;;;;;;;3.78;91.07;100797.94;5046408;28;20397;-77
2022/04/09 04:50:57;;;;;;;;;;;;;;;3.86;90.90;100788.25;5059548;28;19924;-76
2022/04/09 04:53:22;;;;;;;;;;;;;;;3.89;90.78;100789.09;5044697;28;20366;-77
2022/04/09 04:55:48;;;;;;;;;;;;;;;3.96;90.22;100801.09;5044735;28;19935;-75
2022/04/09 04:58:16;;;;;;;;;;;;;;;4.00;89.57;100801.00;5042838;28;19928;-74
2022/04/09 05:00:41;;;;;;;;;;;;;;;4.09;89.26;100786.94;5046078;28;20344;-75
2022/04/09 05:03:07;;;;;;;;;;;;;;;4.14;89.35;100802.44;5053926;28;19966;-75
2022/04/09 05:05:32;;;;;;;;;;;;;;;4.14;89.28;100805.91;5044764;28;19924;-75
2022/04/09 05:07:57;;;;;;;;;;;;;;;4.11;89.66;100802.53;5046140;28;20681;-75
2022/04/09 05:10:24;;;;;;;;;;;;;;;4.08;89.59;100816.41;5045352;28;19970;-75
2022/04/09 05:12:50;;;;;;;;;;;;;;;4.09;89.32;100822.50;5047754;28;19925;-76
2022/04/09 05:15:16;;;;;;;;;;;;;;;4.15;87.43;100823.22;5045185;28;19932;-75
2022/04/09 05:17:41;;;;;;;;;;;;;;;4.12;84.87;100814.63;5058804;28;20376;-75
2022/04/09 05:20:08;;;;;;;;;;;;;;;4.10;83.79;100816.41;5045603;28;20015;-76
2022/04/09 05:22:36;;;;;;;;;;;;;;;4.03;83.52;100813.06;5045993;28;19924;-76
2022/04/09 05:25:02;;;;;;;;;;;;;;;4.11;80.75;100795.56;5044195;28;19924;-75
2022/04/09 05:27:28;;;;;;;;;;;;;;;4.10;81.38;100796.44;5046667;28;19928;-74
2022/04/09 05:29:53;;;;;;;;;;;;;;;4.15;81.70;100805.03;5045133;28;19921;-75
2022/04/09 05:32:18;;;;;;;;;;;;;;;4.11;82.91;100816.38;5058608;28;19974;-74
2022/04/09 05:34:44;;;;;;;;;;;;;;;4.03;84.80;100829.50;5046645;28;20029;-75
2022/04/09 05:37:09;;;;;;;;;;;;;;;4.02;85.09;100826.97;5044059;28;19925;-75
2022/04/09 05:39:35;;;;;;;;;;;;;;;3.98;86.06;100840.88;5047201;28;19981;-74
2022/04/09 05:42:00;;;;;;;;;;;;;;;3.93;86.73;100851.38;5045269;28;19940;-75
2022/04/09 05:44:25;;;;;;;;;;;;;;;4.06;87.13;100858.94;5045939;28;20377;-75
2022/04/09 05:46:51;;;;;;;;;;;;;;;4.10;87.73;100863.22;5045007;28;19960;-75
2022/04/09 05:49:16;;;;;;;;;;;;;;;4.26;88.12;100863.75;5044942;28;19927;-74
2022/04/09 05:51:41;;;;;;;;;;;;;;;4.46;87.84;100858.16;5045617;28;20007;-75
2022/04/09 05:54:07;;;;;;;;;;;;;;;4.72;86.41;100854.97;5047327;28;19929;-75
2022/04/09 05:56:32;;;;;;;;;;;;;;;4.99;86.02;100857.84;5077291;28;19920;-74
2022/04/09 05:58:58;;;;;;;;;;;;;;;5.13;85.82;100849.69;5045649;28;19967;-75
2022/04/09 06:01:23;;;;;;;;;;;;;;;5.24;84.72;100852.03;5036074;28;19935;-75
2022/04/09 06:03:49;;;;;;;;;;;;;;;5.33;84.35;100866.59;5045610;28;20281;-75
2022/04/09 06:06:14;;;;;;;;;;;;;;;5.32;84.84;100864.88;5044019;28;19971;-73
2022/04/09 06:08:39;;;;;;;;;;;;;;;5.45;83.95;100865.44;5047691;28;19923;-76
2022/04/09 06:11:05;;;;;;;;;;;;;;;5.42;83.85;100856.78;5044645;28;20015;-76
2022/04/09 06:13:30;;;;;;;;;;;;;;;5.45;83.40;100865.44;5048874;28;20459;-77
2022/04/09 06:15:56;;;;;;;;;;;;;;;5.40;83.31;100869.00;5045705;28;19944;-77
2022/04/09 06:18:21;;;;;;;;;;;;;;;5.38;83.19;100873.41;5044691;28;19952;-76
2022/04/09 06:20:46;;;;;;;;;;;;;;;5.43;82.69;100873.28;5045767;28;19925;-76
2022/04/09 06:23:12;;;;;;;;;;;;;;;5.75;82.31;100878.56;5047441;28;20528;-77
2022/04/09 06:25:37;;;;;;;;;;;;;;;6.05;82.58;100879.53;5047784;28;20354;-77
2022/04/09 06:28:02;;;;;;;;;;;;;;;6.18;82.09;100880.91;5048396;28;19927;-77
2022/04/09 06:30:28;;;;;;;;;;;;;;;6.15;79.96;100880.16;5047940;28;20409;-77
2022/04/09 06:32:53;;;;;;;;;;;;;;;5.94;80.96;100884.16;5048609;28;20031;-77
2022/04/09 06:35:19;;;;;;;;;;;;;;;5.86;80.25;100887.84;5048207;28;19931;-77
2022/04/09 06:37:44;;;;;;;;;;;;;;;5.65;80.42;100889.22;5051286;28;19920;-76
2022/04/09 06:40:10;;;;;;;;;;;;;;;5.55;79.64;100892.97;5047691;28;20584;-75
2022/04/09 06:42:35;;;;;;;;;;;;;;;5.39;80.31;100908.13;5047643;28;20011;-76
2022/04/09 06:45:02;;;;;;;;;;;;;;;5.42;80.32;100908.91;5049567;28;19971;-76
2022/04/09 06:47:27;;;;;;;;;;;;;;;5.46;80.94;100912.28;5049005;28;19924;-75
2022/04/09 06:49:52;;;;;;;;;;;;;;;5.49;80.36;100912.22;5049540;28;20282;-76
2022/04/09 06:52:18;;;;;;;;;;;;;;;5.60;80.74;100909.38;5048184;28;19923;-77
2022/04/09 06:54:44;;;;;;;;;;;;;;;5.78;80.08;100921.06;5049411;28;20381;-77
2022/04/09 06:57:09;;;;;;;;;;;;;;;6.08;79.18;100917.72;5047805;28;20371;-76
2022/04/09 06:59:37;;;;;;;;;;;;;;;6.45;78.82;100917.56;5048975;28;19967;-75
2022/04/09 07:02:02;;;;;;;;;;;;;;;6.71;77.03;100922.94;5046437;28;19960;-76
2022/04/09 07:04:28;;;;;;;;;;;;;;;6.68;76.97;100923.03;5048113;28;19925;-77
2022/04/09 07:06:53;;;;;;;;;;;;;;;6.47;77.83;100947.06;5047224;28;20392;-77
2022/04/09 07:09:18;;;;;;;;;;;;;;;6.22;80.01;100959.94;5046630;28;20437;-75
2022/04/09 07:11:43;;;;;;;;;;;;;;;5.94;80.72;100958.03;5049933;28;19978;-83
2022/04/09 07:14:09;;;;;;;;;;;;;;;5.59;82.47;100964.97;5047674;28;19921;-78
2022/04/09 07:16:34;;;;;;;;;;;;;;;5.70;82.54;100967.31;5048572;28;20431;-78
2022/04/09 07:19:01;;;;;;;;;;;;;;;5.52;83.21;100972.09;5049243;28;19917;-79
2022/04/09 07:21:28;;;;;;;;;;;;;;;5.48;83.61;100973.03;5039545;28;19924;-77
2022/04/09 07:23:53;;;;;;;;;;;;;;;5.37;84.38;100983.72;5050338;28;20594;-77
2022/04/09 07:26:20;;;;;;;;;;;;;;;5.32;84.71;100990.78;5047818;28;19968;-77
2022/04/09 07:28:46;;;;;;;;;;;;;;;5.57;83.83;100991.06;5081263;28;19927;-81
2022/04/09 07:31:11;;;;;;;;;;;;;;;7.06;80.87;100970.63;5048082;28;20565;-77
2022/04/09 07:33:38;;;;;;;;;;;;;;;8.78;70.05;100913.41;5047222;28;21328;-76
2022/04/09 07:36:04;;;;;;;;;;;;;;;10.78;64.07;100948.88;5046522;28;19944;-75
2022/04/09 07:38:29;;;;;;;;;;;;;;;12.31;57.46;100974.84;5047241;28;19927;-76
2022/04/09 07:40:54;;;;;;;;;;;;;;;12.34;57.07;100991.31;5047862;28;19924;-76
2022/04/09 07:43:19;;;;;;;;;;;;;;;13.06;54.13;101008.69;5045612;28;20523;-77
2022/04/09 07:45:45;;;;;;;;;;;;;;;13.52;51.70;101005.28;5046345;28;20016;-76
2022/04/09 07:48:11;;;;;;;;;;;;;;;14.20;52.13;101031.28;5045594;28;19925;-77
2022/04/09 07:50:36;;;;;;;;;;;;;;;11.99;54.57;101056.34;5046386;28;20016;-76
2022/04/09 07:53:02;;;;;;;;;;;;;;;11.57;58.21;101053.91;5046364;28;20313;-77
2022/04/09 07:55:27;;;;;;;;;;;;;;;10.78;58.05;101051.38;5045457;28;20034;-76
2022/04/09 07:57:54;;;;;;;;;;;;;;;9.55;61.54;101060.78;5061333;28;19928;-75
2022/04/09 08:00:21;;;;;;;;;;;;;;;8.64;64.27;101065.84;5044281;28;19921;-76
2022/04/09 08:02:46;;;;;;;;;;;;;;;7.91;66.99;101071.75;5078881;28;19924;-75
2022/04/09 08:05:11;;;;;;;;;;;;;;;7.52;69.42;101072.94;5046685;28;19943;-77
2022/04/09 08:07:38;;;;;;;;;;;;;;;7.39;70.21;101065.47;5047350;28;19917;-77
2022/04/09 08:10:04;;;;;;;;;;;;;;;7.00;71.82;101047.44;5047023;28;19928;-76
2022/04/09 08:12:29;;;;;;;;;;;;;;;7.26;71.89;101085.03;5035556;28;19921;-76
2022/04/09 08:14:54;;;;;;;;;;;;;;;7.23;73.38;101085.97;5023727;28;19931;-76
2022/04/09 08:17:20;;;;;;;;;;;;;;;8.04;71.27;101076.53;5050290;28;19925;-77
2022/04/09 08:19:46;;;;;;;;;;;;;;;9.95;65.77;101056.56;5046472;28;19917;-77
2022/04/09 08:22:11;;;;;;;;;;;;;;;11.23;59.85;101055.47;5035246;28;19925;-76
2022/04/09 08:24:39;;;;;;;;;;;;;;;10.00;63.66;101072.13;5049184;28;19921;-76
2022/04/09 08:27:04;;;;;;;;;;;;;;;9.31;66.87;101097.53;5045738;28;19924;-77
2022/04/09 08:29:30;;;;;;;;;;;;;;;8.33;70.00;101098.28;5048007;28;19916;-76
2022/04/09 08:31:55;;;;;;;;;;;;;;;7.74;71.58;101101.91;5078670;28;20449;-77
2022/04/09 08:34:20;;;;;;;;;;;;;;;7.40;73.12;101109.00;5046584;28;19951;-76
2022/04/09 08:36:46;;;;;;;;;;;;;;;7.12;74.78;101120.25;5048852;28;19923;-77
2022/04/09 08:39:12;;;;;;;;;;;;;;;8.38;73.06;101105.13;5044545;28;19929;-75
2022/04/09 08:41:40;;;;;;;;;;;;;;;10.60;65.13;101079.31;5049300;28;19959;-77
2022/04/09 08:44:06;;;;;;;;;;;;;;;12.99;56.62;101068.81;5046438;28;19929;-76
2022/04/09 08:46:31;;;;;;;;;;;;;;;14.18;53.76;101058.75;5044679;28;19943;-75
2022/04/09 08:48:58;;;;;;;;;;;;;;;14.10;52.46;101069.75;5048265;28;19924;-76
2022/04/09 08:51:23;;;;;;;;;;;;;;;13.19;52.30;101088.81;5046339;28;19916;-77
2022/04/09 08:53:49;;;;;;;;;;;;;;;13.93;51.50;101081.28;5047365;28;19925;-77
2022/04/09 08:56:15;;;;;;;;;;;;;;;14.27;49.21;101078.50;5045248;28;19927;-78
2022/04/09 08:58:40;;;;;;;;;;;;;;;13.21;52.58;101105.44;5047339;28;20007;-75
2022/04/09 09:01:06;;;;;;;;;;;;;;;14.06;49.37;101089.34;5046302;28;20078;-76
2022/04/09 09:03:31;;;;;;;;;;;;;;;13.71;51.59;101105.44;5047391;28;19935;-75
2022/04/09 09:05:56;;;;;;;;;;;;;;;12.76;53.17;101101.66;5046420;28;19916;-76
2022/04/09 09:08:37;;;;;;;;;;;;;;;12.33;55.31;101112.63;5045619;28;20316;-75
2022/04/09 09:11:02;;;;;;;;;;;;;;;12.31;54.92;101119.72;5045941;28;19970;-75
2022/04/09 09:13:28;;;;;;;;;;;;;;;11.71;55.83;101134.84;5045047;28;19952;-77
2022/04/09 09:15:55;;;;;;;;;;;;;;;10.73;56.53;101153.22;5076789;28;19924;-76
2022/04/09 09:18:21;;;;;;;;;;;;;;;9.25;60.26;101139.72;5044146;28;19979;-76
2022/04/09 09:20:47;;;;;;;;;;;;;;;10.80;56.03;101128.41;5046615;28;19917;-76
2022/04/09 09:23:20;;;;;;;;;;;;;;;12.30;54.35;101125.94;5044774;28;19929;-76
2022/04/09 09:25:47;;;;;;;;;;;;;;;13.58;51.26;101126.38;5047225;28;20465;-76
2022/04/09 09:28:13;;;;;;;;;;;;;;;13.68;49.40;101124.09;5044547;28;19920;-77
2022/04/09 09:30:47;;;;;;;;;;;;;;;13.84;49.47;101134.63;5046415;28;20015;-76
2022/04/09 09:33:12;;;;;;;;;;;;;;;13.30;49.35;101130.47;5044674;28;19944;-77
2022/04/09 09:35:55;;;;;;;;;;;;;;;13.37;50.55;101152.13;5046655;28;19917;-77
2022/04/09 09:38:21;;;;;;;;;;;;;;;13.79;48.79;101148.09;5045275;28;19925;-75
2022/04/09 09:40:47;;;;;;;;;;;;;;;13.52;47.82;101138.09;5047898;28;19943;-75
2022/04/09 09:43:14;;;;;;;;;;;;;;;13.49;49.00;101151.50;5045925;28;19925;-79
2022/04/09 09:45:41;;;;;;;;;;;;;;;14.17;47.89;101144.25;5048610;28;19955;-76
2022/04/09 09:48:18;;;;;;;;;;;;;;;14.66;47.81;101148.47;5044585;28;20385;-76
2022/04/09 09:50:43;;;;;;;;;;;;;;;14.44;48.13;101164.75;5038358;28;20008;-77
2022/04/09 09:53:08;;;;;;;;;;;;;;;14.37;48.57;101162.44;5046796;28;20337;-76
2022/04/09 09:55:43;;;;;;;;;;;;;;;14.07;50.98;101181.75;5045431;28;19971;-76
2022/04/09 09:58:09;;;;;;;;;;;;;;;13.18;51.79;101173.34;5046756;28;19921;-76
2022/04/09 10:00:35;;;;;;;;;;;;;;;12.27;54.73;101186.66;5049678;28;19925;-77
2022/04/09 10:03:00;;;;;;;;;;;;;;;11.13;58.03;101211.97;5050181;28;19971;-77
2022/04/09 10:05:25;;;;;;;;;;;;;;;10.18;64.40;101230.69;5049534;28;20408;-75
2022/04/09 10:07:50;;;;;;;;;;;;;;;9.21;68.99;101230.69;5051668;28;20015;-76
2022/04/09 10:10:16;;;;;;;;;;;;;;;8.33;71.98;101230.94;5050124;28;20539;-76
2022/04/09 10:12:41;;;;;;;;;;;;;;;7.82;74.49;101232.47;5040188;28;19972;-76
2022/04/09 10:15:07;;;;;;;;;;;;;;;8.03;73.97;101228.38;5039164;28;20843;-76
2022/04/09 10:17:33;;;;;;;;;;;;;;;7.75;75.13;101221.31;5050497;28;20314;-76
2022/04/09 10:20:01;;;;;;;;;;;;;;;7.93;74.57;101226.94;5051307;28;19916;-74
2022/04/09 10:22:29;;;;;;;;;;;;;;;9.82;69.22;101203.16;5048155;28;19999;-76
2022/04/09 10:24:55;;;;;;;;;;;;;;;11.87;62.24;101190.25;5051550;28;20381;-76
2022/04/09 10:27:37;;;;;;;;;;;;;;;12.91;59.72;101209.00;5049260;28;19968;-76
2022/04/09 10:30:03;;;;;;;;;;;;;;;11.40;61.41;101212.56;5050635;28;19920;-77
2022/04/09 10:32:43;;;;;;;;;;;;;;;10.09;67.50;101242.38;5050648;28;20003;-77
2022/04/09 10:35:24;;;;;;;;;;;;;;;9.67;68.51;101240.47;5048175;28;19951;-76
2022/04/09 10:38:05;;;;;;;;;;;;;;;9.62;67.55;101242.41;5044215;28;19921;-76
2022/04/09 10:40:30;;;;;;;;;;;;;;;9.97;67.25;101253.38;5048640;28;20015;-76
2022/04/09 10:42:56;;;;;;;;;;;;;;;9.32;69.39;101261.81;5032858;28;20016;-83
2022/04/09 10:45:21;;;;;;;;;;;;;;;9.01;71.93;101259.38;5042991;28;19960;-76
2022/04/09 10:48:01;;;;;;;;;;;;;;;8.63;74.44;101268.44;5045974;28;19923;-77
2022/04/09 10:50:46;;;;;;;;;;;;;;;7.97;76.18;101275.63;5042135;28;19917;-77
2022/04/09 10:53:13;;;;;;;;;;;;;;;7.56;78.54;101268.91;5043700;28;20337;-76
2022/04/09 10:55:38;;;;;;;;;;;;;;;7.52;78.37;101266.44;5076086;28;20254;-76
2022/04/09 10:58:08;;;;;;;;;;;;;;;7.67;79.60;101275.59;5045164;28;20013;-76
2022/04/09 11:00:34;;;;;;;;;;;;;;;8.32;78.63;101273.72;5046660;28;20437;-76
2022/04/09 11:03:16;;;;;;;;;;;;;;;8.73;74.87;101265.53;5061476;28;20011;-76
2022/04/09 11:05:43;;;;;;;;;;;;;;;8.85;66.56;101259.00;5043988;28;19917;-76
2022/04/09 11:08:13;;;;;;;;;;;;;;;8.77;65.34;101243.53;5044433;28;19935;-77
2022/04/09 11:10:38;;;;;;;;;;;;;;;8.90;67.47;101267.59;5044299;28;19928;-77
2022/04/09 11:13:03;;;;;;;;;;;;;;;9.21;69.01;101266.56;5046480;28;20389;-76
2022/04/09 11:15:29;;;;;;;;;;;;;;;9.23;69.11;101264.75;5044105;28;19925;-77
2022/04/09 11:18:01;;;;;;;;;;;;;;;9.44;69.07;101269.25;5047049;28;19946;-76
2022/04/09 11:20:31;;;;;;;;;;;;;;;9.26;72.18;101283.00;5023963;28;19921;-75
2022/04/09 11:23:06;;;;;;;;;;;;;;;9.12;71.71;101279.06;5040524;28;20015;-76
2022/04/09 11:25:32;;;;;;;;;;;;;;;9.52;71.62;101284.72;5045699;28;19921;-77
2022/04/09 11:28:13;;;;;;;;;;;;;;;9.53;70.30;101265.44;5046863;28;19923;-76
2022/04/09 11:30:51;;;;;;;;;;;;;;;9.24;69.65;101269.09;5043142;28;20462;-76
2022/04/09 11:33:16;;;;;;;;;;;;;;;8.56;69.48;101281.78;5044190;28;20023;-77
2022/04/09 11:35:41;;;;;;;;;;;;;;;8.05;69.79;101297.19;5044845;28;20366;-76
2022/04/09 11:38:10;;;;;;;;;;;;;;;7.68;71.58;101303.47;5078110;28;19920;-77
2022/04/09 11:40:35;;;;;;;;;;;;;;;7.40;73.37;101315.53;5045587;28;19974;-77
2022/04/09 11:43:00;;;;;;;;;;;;;;;6.87;73.67;101342.06;5045889;28;19924;-76
2022/04/09 11:45:29;;;;;;;;;;;;;;;7.18;75.55;101328.25;5061713;28;19920;-80
2022/04/09 11:47:57;;;;;;;;;;;;;;;7.81;74.68;101304.00;5045639;28;20022;-77
2022/04/09 11:50:25;;;;;;;;;;;;;;;8.33;75.18;101306.88;5046744;28;19969;-75
2022/04/09 11:52:50;;;;;;;;;;;;;;;8.60;72.31;101293.88;5078038;28;20043;-75
2022/04/09 11:55:16;;;;;;;;;;;;;;;8.59;70.29;101293.00;5044657;28;20111;-76
2022/04/09 11:57:49;;;;;;;;;;;;;;;8.65;67.85;101287.56;5044872;28;20423;-76
2022/04/09 12:00:15;;;;;;;;;;;;;;;9.33;64.99;101271.38;5027392;28;20680;-76
2022/04/09 12:02:41;;;;;;;;;;;;;;;9.27;64.86;101285.56;5024325;28;19921;-77
2022/04/09 12:05:08;;;;;;;;;;;;;;;9.00;63.24;101292.59;5037455;28;19917;-77
2022/04/09 12:07:39;;;;;;;;;;;;;;;9.38;62.15;101286.97;5026358;28;19928;-77
2022/04/09 12:10:04;;;;;;;;;;;;;;;9.27;62.17;101298.66;5023281;28;19970;-75
2022/04/09 12:12:30;;;;;;;;;;;;;;;9.26;61.87;101290.88;5028741;28;19925;-82
2022/04/09 12:14:56;;;;;;;;;;;;;;;9.10;63.73;101306.22;5026344;28;19928;-75
2022/04/09 12:17:23;;;;;;;;;;;;;;;9.73;64.42;101309.31;5023605;28;20500;-78
2022/04/09 12:19:49;;;;;;;;;;;;;;;9.95;63.86;101297.19;5058233;28;19921;-78
2022/04/09 12:22:23;;;;;;;;;;;;;;;10.19;62.67;101316.41;5054803;28;19928;-81
2022/04/09 12:24:49;;;;;;;;;;;;;;;9.85;65.33;101325.53;5047830;28;20000;-78
2022/04/09 12:27:15;;;;;;;;;;;;;;;9.71;64.06;101329.50;5046655;28;19922;-75
2022/04/09 12:29:48;;;;;;;;;;;;;;;9.32;66.75;101348.34;5044228;28;20274;-77
2022/04/09 12:32:14;;;;;;;;;;;;;;;9.08;68.08;101355.25;5043670;28;19933;-77
2022/04/09 12:34:55;;;;;;;;;;;;;;;9.08;68.13;101350.84;5046590;28;20573;-75
2022/04/09 12:37:20;;;;;;;;;;;;;;;8.78;67.16;101350.06;5034375;28;19924;-77
2022/04/09 12:39:46;;;;;;;;;;;;;;;8.65;66.87;101350.44;5062486;28;19917;-78
2022/04/09 12:42:11;;;;;;;;;;;;;;;8.33;69.23;101360.06;5045824;28;20015;-79